Time;durP1;ratioP1;P1;durP2;ratioP2;P2;SDS_P1;SDS_P2;PMS_P1;PMS_P2;Temp;Humidity;BMP_temperature;BMP_pressure;BME280_temperature;BME280_humidity;BME280_pressure;Samples;Min_cycle;Max_cycle;Signal;HPM_P1;HPM_P2
2022/03/11 00:01:06;;;;;;;16.25;10.30;;;6.50;73.00;;;;;;5072901;28;20036;-56
2022/03/11 00:03:32;;;;;;;15.90;10.63;;;6.50;73.20;;;;;;5091609;28;20097;-57
2022/03/11 00:05:57;;;;;;;14.43;10.85;;;6.50;73.20;;;;;;5098076;28;20035;-57
2022/03/11 00:08:23;;;;;;;16.88;11.23;;;6.50;73.10;;;;;;5086363;28;20626;-56
2022/03/11 00:10:49;;;;;;;17.38;11.20;;;6.50;73.40;;;;;;5094263;28;20096;-57
2022/03/11 00:13:15;;;;;;;16.63;10.90;;;6.40;74.00;;;;;;5088889;28;20043;-57
2022/03/11 00:15:42;;;;;;;16.65;11.48;;;6.40;74.10;;;;;;5101453;28;20054;-56
2022/03/11 00:18:08;;;;;;;17.42;11.00;;;6.30;74.20;;;;;;5093025;28;20331;-57
2022/03/11 00:20:34;;;;;;;17.67;11.35;;;6.20;74.00;;;;;;5075656;28;20044;-54
2022/03/11 00:22:59;;;;;;;17.35;11.05;;;6.10;74.10;;;;;;5080844;28;20036;-56
2022/03/11 00:25:25;;;;;;;15.05;10.65;;;6.00;74.40;;;;;;5089856;28;20047;-57
2022/03/11 00:27:52;;;;;;;16.55;11.75;;;5.90;74.40;;;;;;5095900;28;20066;-56
2022/03/11 00:30:18;;;;;;;19.25;12.00;;;5.90;74.80;;;;;;5092169;28;20051;-57
2022/03/11 00:32:45;;;;;;;15.88;11.85;;;5.80;75.10;;;;;;5086186;28;20096;-56
2022/03/11 00:35:11;;;;;;;16.60;11.55;;;5.80;75.20;;;;;;5066782;28;20158;-56
2022/03/11 00:37:41;;;;;;;18.13;11.50;;;5.70;75.70;;;;;;5090176;28;20046;-57
2022/03/11 00:40:08;;;;;;;20.00;10.68;;;5.70;75.70;;;;;;5090879;28;20083;-56
2022/03/11 00:42:34;;;;;;;18.08;11.60;;;5.60;75.90;;;;;;5071974;28;20278;-57
2022/03/11 00:45:01;;;;;;;17.10;11.68;;;5.60;75.90;;;;;;5094541;28;20589;-54
2022/03/11 00:47:27;;;;;;;17.85;12.15;;;5.60;76.50;;;;;;5087382;28;20059;-55
2022/03/11 00:49:53;;;;;;;18.02;12.80;;;5.50;76.60;;;;;;5088098;28;20047;-53
2022/03/11 00:52:19;;;;;;;18.08;11.82;;;5.50;77.10;;;;;;5083043;28;20051;-55
2022/03/11 00:54:45;;;;;;;19.30;11.90;;;5.50;77.40;;;;;;5061054;28;20032;-56
2022/03/11 00:57:10;;;;;;;18.98;11.63;;;5.40;77.30;;;;;;5075945;28;20079;-56
2022/03/11 00:59:36;;;;;;;16.38;11.73;;;5.40;77.30;;;;;;5066363;28;20406;-57
2022/03/11 01:02:02;;;;;;;20.25;12.68;;;5.30;77.50;;;;;;5079470;28;20383;-56
2022/03/11 01:04:28;;;;;;;18.40;12.10;;;5.30;77.90;;;;;;5095565;28;20040;-55
2022/03/11 01:06:54;;;;;;;17.58;11.57;;;5.20;78.00;;;;;;5097213;28;20145;-53
2022/03/11 01:09:19;;;;;;;21.35;12.75;;;5.20;77.90;;;;;;5083002;28;20051;-56
2022/03/11 01:11:45;;;;;;;19.02;11.52;;;5.20;78.30;;;;;;5074665;28;20036;-56
2022/03/11 01:14:11;;;;;;;17.48;11.82;;;5.10;78.50;;;;;;5097956;28;20510;-56
2022/03/11 01:16:37;;;;;;;16.92;12.05;;;5.10;78.60;;;;;;5071825;28;20359;-54
2022/03/11 01:19:02;;;;;;;18.40;11.38;;;5.10;78.70;;;;;;5091107;28;20040;-57
2022/03/11 01:21:28;;;;;;;16.30;11.05;;;5.10;78.70;;;;;;5084005;28;20119;-56
2022/03/11 01:23:54;;;;;;;21.55;10.95;;;5.00;79.10;;;;;;5062266;28;20414;-55
2022/03/11 01:26:20;;;;;;;15.90;10.73;;;5.00;79.10;;;;;;5074109;28;20093;-57
2022/03/11 01:28:46;;;;;;;18.13;11.02;;;5.00;79.30;;;;;;5093715;28;20110;-53
2022/03/11 01:31:12;;;;;;;20.00;11.30;;;5.00;79.30;;;;;;5086732;28;20111;-56
2022/03/11 01:33:42;;;;;;;16.70;10.63;;;5.00;79.40;;;;;;5090547;28;20046;-54
2022/03/11 01:36:10;;;;;;;15.77;11.10;;;4.90;79.70;;;;;;5095239;28;20494;-56
2022/03/11 01:38:36;;;;;;;15.02;11.00;;;4.90;80.00;;;;;;5075662;28;20036;-53
2022/03/11 01:41:02;;;;;;;14.57;10.45;;;4.90;80.40;;;;;;5088957;28;20195;-54
2022/03/11 01:43:29;;;;;;;17.85;11.52;;;4.90;80.30;;;;;;5086517;28;20040;-56
2022/03/11 01:45:55;;;;;;;18.50;9.98;;;4.90;80.10;;;;;;5086364;28;20128;-54
2022/03/11 01:48:21;;;;;;;14.48;10.13;;;4.90;80.10;;;;;;5073766;28;20096;-55
2022/03/11 01:50:47;;;;;;;15.70;10.85;;;4.90;80.50;;;;;;5086709;28;20033;-57
2022/03/11 01:53:14;;;;;;;17.55;10.15;;;4.90;80.50;;;;;;5084908;28;20050;-56
2022/03/11 01:55:40;;;;;;;16.02;10.18;;;4.90;80.20;;;;;;5086225;28;20047;-55
2022/03/11 01:58:07;;;;;;;16.60;9.63;;;4.90;80.60;;;;;;5099470;28;20516;-55
2022/03/11 02:00:39;;;;;;;15.07;9.45;;;4.90;80.70;;;;;;5072828;28;20163;-56
2022/03/11 02:05:36;;;;;;;15.13;10.23;;;4.80;81.10;;;;;;5061018;28;20041;-53
2022/03/11 02:08:02;;;;;;;13.05;9.40;;;4.90;81.30;;;;;;5036023;28;20410;-55
2022/03/11 02:10:30;;;;;;;13.88;9.70;;;4.80;81.00;;;;;;5052809;28;20127;-56
2022/03/11 02:12:57;;;;;;;15.98;9.93;;;4.90;81.20;;;;;;5059406;28;20055;-55
2022/03/11 02:15:23;;;;;;;14.80;9.52;;;4.80;81.20;;;;;;5062068;28;20049;-55
2022/03/11 02:17:49;;;;;;;15.32;9.95;;;4.80;81.10;;;;;;5053861;28;20044;-54
2022/03/11 02:20:15;;;;;;;15.68;10.05;;;4.80;81.50;;;;;;5056075;28;20399;-54
2022/03/11 02:22:41;;;;;;;13.90;9.15;;;4.80;81.50;;;;;;5055569;28;20039;-56
2022/03/11 02:25:08;;;;;;;15.52;10.07;;;4.80;81.70;;;;;;5053463;28;20478;-56
2022/03/11 02:27:38;;;;;;;13.88;8.93;;;4.70;81.80;;;;;;5057074;28;20487;-56
2022/03/11 02:30:16;;;;;;;13.02;8.98;;;4.70;82.30;;;;;;5056139;28;20511;-53
2022/03/11 02:32:42;;;;;;;13.50;9.35;;;4.70;82.30;;;;;;5053850;28;20037;-55
2022/03/11 02:35:09;;;;;;;14.90;9.38;;;4.70;82.80;;;;;;5059904;28;20059;-55
2022/03/11 02:37:35;;;;;;;14.90;9.43;;;4.60;82.60;;;;;;5043875;28;20298;-52
2022/03/11 02:40:02;;;;;;;14.93;8.82;;;4.60;83.00;;;;;;5061861;28;20052;-52
2022/03/11 02:42:28;;;;;;;13.02;9.27;;;4.60;82.90;;;;;;5037505;28;20052;-54
2022/03/11 02:44:53;;;;;;;15.52;9.30;;;4.60;83.30;;;;;;5045657;28;20129;-52
2022/03/11 02:47:19;;;;;;;14.38;9.50;;;4.60;83.40;;;;;;5061188;28;20068;-55
2022/03/11 02:49:45;;;;;;;15.57;10.02;;;4.60;83.40;;;;;;5055147;28;20037;-55
2022/03/11 02:52:11;;;;;;;14.23;9.23;;;4.50;84.10;;;;;;5059483;28;20045;-55
2022/03/11 02:54:36;;;;;;;15.48;9.18;;;4.50;84.60;;;;;;5051617;28;20048;-56
2022/03/11 02:57:02;;;;;;;18.77;9.52;;;4.50;84.80;;;;;;5044733;28;22332;-52
2022/03/11 02:59:28;;;;;;;14.65;9.20;;;4.50;85.30;;;;;;5040944;28;20053;-53
2022/03/11 03:01:54;;;;;;;15.82;9.65;;;4.40;85.80;;;;;;5041676;28;20033;-54
2022/03/11 03:04:19;;;;;;;13.20;8.93;;;4.40;86.00;;;;;;5053051;28;20048;-54
2022/03/11 03:06:45;;;;;;;15.15;9.75;;;4.40;86.10;;;;;;5045124;28;20044;-54
2022/03/11 03:09:11;;;;;;;14.10;9.05;;;4.40;86.40;;;;;;5059706;28;20045;-56
2022/03/11 03:11:36;;;;;;;14.30;9.50;;;4.40;86.70;;;;;;5056848;28;20522;-57
2022/03/11 03:14:03;;;;;;;14.45;9.63;;;4.40;86.80;;;;;;5056036;28;20208;-55
2022/03/11 03:16:29;;;;;;;18.05;9.68;;;4.40;87.00;;;;;;5060080;28;20074;-56
2022/03/11 03:18:55;;;;;;;17.92;10.07;;;4.40;87.10;;;;;;5045207;28;20045;-53
2022/03/11 03:21:21;;;;;;;19.30;11.35;;;4.50;87.70;;;;;;5065990;28;20244;-56
2022/03/11 03:23:48;;;;;;;12.70;9.38;;;4.40;87.60;;;;;;5046709;28;20047;-57
2022/03/11 03:26:13;;;;;;;16.60;10.02;;;4.50;87.70;;;;;;5064655;28;20052;-51
2022/03/11 03:28:39;;;;;;;14.95;9.70;;;4.40;88.40;;;;;;5039376;28;20037;-56
2022/03/11 03:31:05;;;;;;;15.52;10.82;;;4.40;88.70;;;;;;5065361;28;20131;-54
2022/03/11 03:33:31;;;;;;;16.55;10.55;;;4.40;89.00;;;;;;5055111;28;20128;-54
2022/03/11 03:35:57;;;;;;;15.77;10.15;;;4.30;89.40;;;;;;5040610;28;20039;-53
2022/03/11 03:38:23;;;;;;;15.85;10.15;;;4.30;89.10;;;;;;5048847;28;20049;-56
2022/03/11 03:40:48;;;;;;;17.45;9.93;;;4.30;89.00;;;;;;5049543;28;20097;-55
2022/03/11 03:43:14;;;;;;;17.35;10.93;;;4.30;89.50;;;;;;5063044;28;20040;-55
2022/03/11 03:45:40;;;;;;;18.58;11.50;;;4.30;89.90;;;;;;5062574;28;20036;-55
2022/03/11 03:48:06;;;;;;;18.25;10.52;;;4.30;90.10;;;;;;5061137;28;20037;-56
2022/03/11 03:50:31;;;;;;;17.92;11.57;;;4.30;90.10;;;;;;5047198;28;20576;-54
2022/03/11 03:52:58;;;;;;;19.10;11.38;;;4.30;90.40;;;;;;5043383;28;20301;-55
2022/03/11 03:55:24;;;;;;;21.25;11.48;;;4.30;90.40;;;;;;5057155;28;20052;-55
2022/03/11 03:57:50;;;;;;;19.25;11.40;;;4.20;90.60;;;;;;5041537;28;20154;-55
2022/03/11 04:00:15;;;;;;;19.48;11.65;;;4.20;90.80;;;;;;5051924;28;20041;-57
2022/03/11 04:02:49;;;;;;;20.27;11.82;;;4.20;90.80;;;;;;5029713;28;20044;-54
2022/03/11 04:05:16;;;;;;;17.90;10.90;;;4.20;90.80;;;;;;5061312;28;20099;-55
2022/03/11 04:07:43;;;;;;;18.00;11.23;;;4.20;90.80;;;;;;5056818;28;20044;-55
2022/03/11 04:10:13;;;;;;;19.52;12.50;;;4.10;90.80;;;;;;5054577;28;20048;-54
2022/03/11 04:12:39;;;;;;;18.70;11.68;;;4.10;91.30;;;;;;5037405;28;20045;-53
2022/03/11 04:15:06;;;;;;;20.35;12.35;;;4.10;91.30;;;;;;5052806;28;20097;-56
2022/03/11 04:17:32;;;;;;;19.42;12.15;;;4.00;91.40;;;;;;5039857;28;20097;-53
2022/03/11 04:19:59;;;;;;;19.88;12.95;;;4.10;91.50;;;;;;5060563;28;20556;-56
2022/03/11 04:22:26;;;;;;;19.67;12.73;;;4.10;91.60;;;;;;5062835;28;20048;-56
2022/03/11 04:24:52;;;;;;;21.58;12.68;;;4.10;91.90;;;;;;5044277;28;20052;-55
2022/03/11 04:27:18;;;;;;;18.85;12.93;;;4.00;91.80;;;;;;5058076;28;20037;-54
2022/03/11 04:29:43;;;;;;;19.70;12.70;;;4.00;91.80;;;;;;5061634;28;20102;-55
2022/03/11 04:32:09;;;;;;;19.60;12.95;;;4.00;91.90;;;;;;5058649;28;20044;-55
2022/03/11 04:34:35;;;;;;;20.42;13.55;;;4.00;92.20;;;;;;5061116;28;20074;-56
2022/03/11 04:37:00;;;;;;;21.30;13.93;;;4.00;92.40;;;;;;5061703;28;20036;-53
2022/03/11 04:39:26;;;;;;;18.77;12.60;;;3.90;92.40;;;;;;5047694;28;20059;-54
2022/03/11 04:41:56;;;;;;;21.20;12.20;;;3.90;92.60;;;;;;5065285;28;20040;-55
2022/03/11 04:44:22;;;;;;;18.65;13.13;;;3.90;92.70;;;;;;5062514;28;20051;-56
2022/03/11 04:46:48;;;;;;;20.40;13.10;;;3.80;92.90;;;;;;5047931;28;20078;-54
2022/03/11 04:49:14;;;;;;;21.23;13.70;;;3.80;93.10;;;;;;5042113;28;20044;-55
2022/03/11 04:51:40;;;;;;;23.38;13.93;;;3.80;93.40;;;;;;5041752;28;20044;-55
2022/03/11 04:54:06;;;;;;;21.70;14.77;;;3.70;93.80;;;;;;5058317;28;20049;-56
2022/03/11 04:56:32;;;;;;;27.05;15.25;;;3.70;93.70;;;;;;5063335;28;20028;-54
2022/03/11 04:58:59;;;;;;;24.13;14.40;;;3.70;93.80;;;;;;5055641;28;20683;-54
2022/03/11 05:01:25;;;;;;;22.85;14.55;;;3.70;94.10;;;;;;5054926;28;20044;-54
2022/03/11 05:03:50;;;;;;;23.83;14.50;;;3.70;94.20;;;;;;5059733;28;20036;-53
2022/03/11 05:06:16;;;;;;;23.45;14.90;;;3.70;94.30;;;;;;5041753;28;20048;-54
2022/03/11 05:08:42;;;;;;;30.00;16.25;;;3.70;94.50;;;;;;5061004;28;20115;-54
2022/03/11 05:11:08;;;;;;;23.52;15.32;;;3.70;94.80;;;;;;5061485;28;20048;-53
2022/03/11 05:13:34;;;;;;;22.73;14.77;;;3.60;94.90;;;;;;5046757;28;20040;-55
2022/03/11 05:16:00;;;;;;;24.65;16.50;;;3.60;94.90;;;;;;5058235;28;20035;-56
2022/03/11 05:18:26;;;;;;;25.92;15.43;;;3.60;94.90;;;;;;5042286;28;20045;-57
2022/03/11 05:20:52;;;;;;;26.83;15.65;;;3.70;94.80;;;;;;5059132;28;20041;-54
2022/03/11 05:23:18;;;;;;;27.92;15.73;;;3.60;94.90;;;;;;5059560;28;20044;-55
2022/03/11 05:25:44;;;;;;;26.77;17.17;;;3.60;95.10;;;;;;5053348;28;20044;-55
2022/03/11 05:28:10;;;;;;;26.00;15.68;;;3.60;95.30;;;;;;5050508;28;20964;-55
2022/03/11 05:30:36;;;;;;;23.63;15.30;;;3.60;95.50;;;;;;5057662;28;20125;-55
2022/03/11 05:33:03;;;;;;;27.23;17.20;;;3.60;95.60;;;;;;5041533;28;20051;-55
2022/03/11 05:35:29;;;;;;;25.25;16.05;;;3.60;95.50;;;;;;5059793;28;20111;-55
2022/03/11 05:37:55;;;;;;;24.20;15.55;;;3.60;95.60;;;;;;5053029;28;20178;-55
2022/03/11 05:40:20;;;;;;;26.75;15.13;;;3.60;95.60;;;;;;5064279;28;20044;-57
2022/03/11 05:42:46;;;;;;;25.50;15.98;;;3.50;95.50;;;;;;5059436;28;20503;-55
2022/03/11 05:45:12;;;;;;;24.30;15.80;;;3.50;95.90;;;;;;5057579;28;20048;-54
2022/03/11 05:47:39;;;;;;;24.80;16.05;;;3.60;96.00;;;;;;5047946;28;20056;-56
2022/03/11 05:50:06;;;;;;;25.23;16.10;;;3.50;96.00;;;;;;5043689;28;20071;-54
2022/03/11 05:52:34;;;;;;;25.55;16.02;;;3.50;96.10;;;;;;5061071;28;20040;-54
2022/03/11 05:54:59;;;;;;;26.75;16.13;;;3.60;96.20;;;;;;5056130;28;20412;-54
2022/03/11 05:57:25;;;;;;;25.15;16.80;;;3.50;96.10;;;;;;5041230;28;20052;-56
2022/03/11 05:59:51;;;;;;;21.25;14.80;;;3.60;96.00;;;;;;5042645;28;20052;-55
2022/03/11 06:02:17;;;;;;;24.13;15.68;;;3.60;96.00;;;;;;5059183;28;20043;-55
2022/03/11 06:04:42;;;;;;;25.15;16.23;;;3.60;96.00;;;;;;5055853;28;20044;-54
2022/03/11 06:07:08;;;;;;;27.90;16.13;;;3.60;96.30;;;;;;5056812;28;20117;-53
2022/03/11 06:09:34;;;;;;;28.27;16.98;;;3.60;96.00;;;;;;5045290;28;20040;-52
2022/03/11 06:12:00;;;;;;;25.48;16.42;;;3.60;96.20;;;;;;5058184;28;20126;-55
2022/03/11 06:14:26;;;;;;;28.95;16.27;;;3.60;96.40;;;;;;5044648;28;20147;-57
2022/03/11 06:16:52;;;;;;;23.85;16.13;;;3.60;96.20;;;;;;5054914;28;20037;-57
2022/03/11 06:19:18;;;;;;;27.15;16.88;;;3.50;96.30;;;;;;5057647;28;20090;-55
2022/03/11 06:21:43;;;;;;;28.75;17.38;;;3.50;96.30;;;;;;5059714;28;20464;-56
2022/03/11 06:24:09;;;;;;;28.35;16.30;;;3.50;96.30;;;;;;5045748;28;20080;-53
2022/03/11 06:26:35;;;;;;;26.70;17.33;;;3.50;96.30;;;;;;5064368;28;20048;-58
2022/03/11 06:29:01;;;;;;;25.98;17.13;;;3.50;96.40;;;;;;5058576;28;20040;-60
2022/03/11 06:31:27;;;;;;;26.92;17.00;;;3.60;96.50;;;;;;5035166;28;20522;-55
2022/03/11 06:33:53;;;;;;;24.83;16.15;;;3.60;96.50;;;;;;5058340;28;20036;-53
2022/03/11 06:36:18;;;;;;;26.33;16.98;;;3.60;96.50;;;;;;5063330;28;20550;-51
2022/03/11 06:38:44;;;;;;;26.83;16.50;;;3.60;96.60;;;;;;5064235;28;20080;-54
2022/03/11 06:41:11;;;;;;;28.52;16.98;;;3.60;96.60;;;;;;5061543;28;20051;-54
2022/03/11 06:43:38;;;;;;;24.48;16.38;;;3.60;96.50;;;;;;5065327;28;20154;-58
2022/03/11 06:46:05;;;;;;;29.05;17.35;;;3.60;96.60;;;;;;5015836;28;20068;-57
2022/03/11 06:48:31;;;;;;;28.30;17.67;;;3.70;96.50;;;;;;5062771;28;20094;-53
2022/03/11 06:50:57;;;;;;;25.27;16.20;;;3.70;96.30;;;;;;5059498;28;20373;-56
2022/03/11 06:53:26;;;;;;;27.75;16.90;;;4.10;96.20;;;;;;5027802;28;20530;-53
2022/03/11 06:55:53;;;;;;;30.65;17.52;;;4.60;95.50;;;;;;5068017;28;20048;-53
2022/03/11 06:58:19;;;;;;;27.88;17.15;;;4.90;94.10;;;;;;5063581;28;20066;-60
2022/03/11 07:00:44;;;;;;;27.60;15.80;;;5.50;93.30;;;;;;5010537;28;20035;-53
2022/03/11 07:03:10;;;;;;;30.45;17.63;;;5.40;92.00;;;;;;5042116;28;20041;-55
2022/03/11 07:05:36;;;;;;;27.65;16.63;;;5.60;91.70;;;;;;5044884;28;20407;-54
2022/03/11 07:08:02;;;;;;;25.63;17.15;;;5.60;91.10;;;;;;5067934;28;20044;-55
2022/03/11 07:10:28;;;;;;;26.85;16.92;;;5.50;91.20;;;;;;5059377;28;20040;-53
2022/03/11 07:12:54;;;;;;;25.23;16.00;;;5.30;91.20;;;;;;5067495;28;20024;-59
2022/03/11 07:15:19;;;;;;;25.58;16.30;;;5.30;91.50;;;;;;5046294;28;20396;-56
2022/03/11 07:17:46;;;;;;;26.55;15.88;;;5.20;91.60;;;;;;5061370;28;20082;-57
2022/03/11 07:20:12;;;;;;;25.67;17.23;;;5.10;91.80;;;;;;5040734;28;20136;-54
2022/03/11 07:22:39;;;;;;;26.58;16.13;;;5.00;91.70;;;;;;5063302;28;20502;-58
2022/03/11 07:25:05;;;;;;;26.05;16.40;;;5.00;91.70;;;;;;5043416;28;20093;-53
2022/03/11 07:27:34;;;;;;;27.50;16.95;;;5.10;91.80;;;;;;5068404;28;20426;-59
2022/03/11 07:30:00;;;;;;;27.92;16.83;;;5.10;91.80;;;;;;5062225;28;20234;-56
2022/03/11 07:32:25;;;;;;;22.27;15.35;;;5.10;92.00;;;;;;5055708;28;20044;-53
2022/03/11 07:34:51;;;;;;;24.75;16.10;;;5.20;91.60;;;;;;5052762;28;20036;-55
2022/03/11 07:37:17;;;;;;;24.42;15.38;;;5.20;91.50;;;;;;5053455;28;20036;-57
2022/03/11 07:39:43;;;;;;;25.45;15.85;;;5.30;91.50;;;;;;5024845;28;20056;-55
2022/03/11 07:42:10;;;;;;;26.20;18.10;;;5.30;91.40;;;;;;5063656;28;20514;-51
2022/03/11 07:44:36;;;;;;;27.10;15.60;;;5.30;91.10;;;;;;5063873;28;20487;-56
2022/03/11 07:47:02;;;;;;;23.73;16.40;;;5.40;91.20;;;;;;5062525;28;20098;-53
2022/03/11 07:49:28;;;;;;;23.23;15.00;;;5.40;91.20;;;;;;5038274;28;20507;-56
2022/03/11 07:51:54;;;;;;;24.58;17.17;;;5.50;91.00;;;;;;5061766;28;20127;-55
2022/03/11 07:54:20;;;;;;;23.52;16.00;;;5.60;90.90;;;;;;5059636;28;20037;-54
2022/03/11 07:56:46;;;;;;;25.13;16.27;;;5.70;90.70;;;;;;5045467;28;20062;-55
2022/03/11 07:59:12;;;;;;;25.98;16.13;;;5.70;90.40;;;;;;5052945;28;20060;-59
2022/03/11 08:01:37;;;;;;;25.13;16.05;;;5.80;90.20;;;;;;5066505;28;20043;-52
2022/03/11 08:04:05;;;;;;;28.58;15.75;;;5.90;89.40;;;;;;5053368;28;20041;-55
2022/03/11 08:06:31;;;;;;;30.75;16.52;;;5.90;88.80;;;;;;5055229;28;20272;-55
2022/03/11 08:08:57;;;;;;;26.13;15.88;;;6.00;88.70;;;;;;5058853;28;20080;-54
2022/03/11 08:11:23;;;;;;;25.20;16.17;;;6.10;88.10;;;;;;5061257;28;20601;-55
2022/03/11 08:13:49;;;;;;;24.80;17.05;;;6.20;87.50;;;;;;5056298;28;20537;-59
2022/03/11 08:16:15;;;;;;;26.10;15.60;;;6.20;87.80;;;;;;5057902;28;20041;-55
2022/03/11 08:18:42;;;;;;;26.67;16.63;;;6.30;87.30;;;;;;5054975;28;20044;-53
2022/03/11 08:21:10;;;;;;;27.48;15.65;;;6.30;86.80;;;;;;5063355;28;20553;-55
2022/03/11 08:23:36;;;;;;;24.10;15.32;;;6.40;86.90;;;;;;5057182;28;20048;-55
2022/03/11 08:26:02;;;;;;;23.70;14.82;;;6.50;85.70;;;;;;5064324;28;20044;-55
2022/03/11 08:28:29;;;;;;;24.13;15.73;;;6.60;85.70;;;;;;5055681;28;20040;-59
2022/03/11 08:30:55;;;;;;;25.58;15.98;;;6.70;85.40;;;;;;5025707;28;20044;-55
2022/03/11 08:33:22;;;;;;;23.73;16.25;;;6.80;85.30;;;;;;5050509;28;20047;-52
2022/03/11 08:35:49;;;;;;;26.60;15.80;;;6.80;85.00;;;;;;5051345;28;20966;-53
2022/03/11 08:38:15;;;;;;;21.83;14.38;;;6.90;83.90;;;;;;5058169;28;20044;-54
2022/03/11 08:40:41;;;;;;;24.55;15.90;;;7.00;84.20;;;;;;5045132;28;20538;-53
2022/03/11 08:43:07;;;;;;;25.65;15.82;;;7.10;83.10;;;;;;5059650;28;20040;-60
2022/03/11 08:45:33;;;;;;;24.75;15.68;;;7.20;83.00;;;;;;5058666;28;20037;-53
2022/03/11 08:47:59;;;;;;;23.38;15.25;;;7.30;82.20;;;;;;5052102;28;20037;-55
2022/03/11 08:50:25;;;;;;;23.77;16.10;;;7.50;82.60;;;;;;5030830;28;20408;-55
2022/03/11 08:52:51;;;;;;;24.13;15.48;;;7.50;81.30;;;;;;5042503;28;20709;-55
2022/03/11 08:55:17;;;;;;;23.30;15.43;;;7.70;81.50;;;;;;5055595;28;20115;-53
2022/03/11 08:57:49;;;;;;;23.20;14.98;;;7.70;80.40;;;;;;5065885;28;20452;-60
2022/03/11 09:00:17;;;;;;;25.20;15.88;;;7.70;80.70;;;;;;5058152;28;20047;-53
2022/03/11 09:02:44;;;;;;;21.95;15.68;;;7.80;80.40;;;;;;5061391;28;20044;-58
2022/03/11 09:05:10;;;;;;;24.20;16.02;;;7.90;79.70;;;;;;5044786;28;20323;-52
2022/03/11 09:07:36;;;;;;;23.02;15.38;;;7.90;79.10;;;;;;5058424;28;20047;-53
2022/03/11 09:10:05;;;;;;;22.98;14.75;;;8.00;79.30;;;;;;5054970;28;20128;-59
2022/03/11 09:12:32;;;;;;;22.85;15.57;;;8.20;79.30;;;;;;5028240;28;20495;-58
2022/03/11 09:14:58;;;;;;;26.00;15.27;;;8.30;78.70;;;;;;5055378;28;20036;-55
2022/03/11 09:17:25;;;;;;;20.23;15.20;;;8.40;78.40;;;;;;5035429;28;20561;-55
2022/03/11 09:19:51;;;;;;;22.90;14.82;;;8.50;77.20;;;;;;5066340;28;20025;-55
2022/03/11 09:22:17;;;;;;;29.30;15.52;;;8.50;76.20;;;;;;5063726;28;20037;-55
2022/03/11 09:24:45;;;;;;;22.15;14.73;;;8.60;74.50;;;;;;5058973;28;20036;-61
2022/03/11 09:27:11;;;;;;;23.85;15.25;;;8.60;75.40;;;;;;5042700;28;20032;-57
2022/03/11 09:29:41;;;;;;;22.83;14.88;;;8.80;74.40;;;;;;5052283;28;20283;-57
2022/03/11 09:32:07;;;;;;;22.83;14.88;;;8.90;73.50;;;;;;5052827;28;20044;-54
2022/03/11 09:34:34;;;;;;;23.52;15.85;;;8.90;72.50;;;;;;5058067;28;21538;-55
2022/03/11 09:37:00;;;;;;;21.50;15.48;;;8.90;71.80;;;;;;5048562;28;20192;-56
2022/03/11 09:39:26;;;;;;;21.80;15.50;;;8.90;72.10;;;;;;5057489;28;20505;-59
2022/03/11 09:41:52;;;;;;;22.13;14.90;;;9.00;72.00;;;;;;5011420;28;20082;-57
2022/03/11 09:44:18;;;;;;;25.38;14.27;;;9.20;72.00;;;;;;5053405;28;20041;-56
2022/03/11 09:46:45;;;;;;;22.83;15.15;;;9.30;70.80;;;;;;5049930;28;20795;-57
2022/03/11 09:49:14;;;;;;;22.60;14.68;;;9.20;69.70;;;;;;5061273;28;20047;-57
2022/03/11 09:51:46;;;;;;;22.17;16.10;;;9.30;71.40;;;;;;5058989;28;20037;-57
2022/03/11 09:54:13;;;;;;;22.23;14.77;;;9.40;70.80;;;;;;5040506;28;20408;-56
2022/03/11 09:56:41;;;;;;;22.33;15.23;;;9.60;70.50;;;;;;5044568;28;20306;-55
2022/03/11 09:59:08;;;;;;;23.13;14.93;;;9.50;69.00;;;;;;5052322;28;20469;-55
2022/03/11 10:01:34;;;;;;;23.95;15.43;;;9.70;70.50;;;;;;5058526;28;20032;-58
2022/03/11 10:04:04;;;;;;;22.35;15.02;;;9.80;68.90;;;;;;5060731;28;20286;-55
2022/03/11 10:06:40;;;;;;;21.73;14.75;;;9.80;68.30;;;;;;5054284;28;20052;-59
2022/03/11 10:09:18;;;;;;;24.27;15.68;;;10.00;69.30;;;;;;5039138;28;20044;-56
2022/03/11 10:11:49;;;;;;;23.20;14.85;;;10.00;68.70;;;;;;5040543;28;20051;-56
2022/03/11 10:14:17;;;;;;;25.58;15.25;;;10.00;67.80;;;;;;5056033;28;20035;-61
2022/03/11 10:16:44;;;;;;;24.00;15.57;;;10.10;67.20;;;;;;5045831;28;20509;-53
2022/03/11 10:19:13;;;;;;;21.85;14.93;;;10.00;67.30;;;;;;5056013;28;20048;-56
2022/03/11 10:21:40;;;;;;;22.38;15.48;;;10.10;67.60;;;;;;5063416;28;20498;-57
2022/03/11 10:24:10;;;;;;;21.48;14.77;;;10.10;67.50;;;;;;5059476;28;20210;-55
2022/03/11 10:26:50;;;;;;;20.48;15.38;;;10.20;66.50;;;;;;5058240;28;20045;-53
2022/03/11 10:29:29;;;;;;;23.80;16.65;;;10.20;66.40;;;;;;5051601;28;20044;-56
2022/03/11 10:31:59;;;;;;;23.23;15.48;;;10.30;66.40;;;;;;5039724;28;20029;-53
2022/03/11 10:34:36;;;;;;;25.92;14.82;;;10.40;67.30;;;;;;5055602;28;20087;-56
2022/03/11 10:37:12;;;;;;;22.30;15.68;;;10.50;66.50;;;;;;5025623;28;20045;-57
2022/03/11 10:39:41;;;;;;;21.02;15.15;;;10.50;64.90;;;;;;5055550;28;20032;-56
2022/03/11 10:42:12;;;;;;;23.02;15.38;;;10.60;65.60;;;;;;5054958;28;20063;-57
2022/03/11 10:44:42;;;;;;;21.73;15.88;;;10.70;65.70;;;;;;5056275;28;20575;-56
2022/03/11 10:47:20;;;;;;;19.65;15.20;;;10.70;65.10;;;;;;5046303;28;20119;-53
2022/03/11 10:49:54;;;;;;;21.80;16.25;;;10.80;65.00;;;;;;5055493;28;20127;-54
2022/03/11 10:52:30;;;;;;;;;;;10.90;63.60;;;;;;5046391;28;20041;-54
2022/03/11 10:54:56;;;;;;;25.98;17.10;;;11.00;63.30;;;;;;5054576;28;20003;-55
2022/03/11 10:57:37;;;;;;;21.00;14.93;;;11.10;65.60;;;;;;5053517;28;20057;-54
2022/03/11 11:00:23;;;;;;;21.63;14.90;;;11.30;64.80;;;;;;5056707;28;20115;-55
2022/03/11 11:02:51;;;;;;;24.50;17.10;;;11.40;65.30;;;;;;5056680;28;20688;-56
2022/03/11 11:05:17;;;;;;;20.15;15.65;;;11.50;64.40;;;;;;5059775;28;20048;-57
2022/03/11 11:07:44;;;;;;;21.33;15.35;;;11.30;62.80;;;;;;5057659;28;20577;-53
2022/03/11 11:10:12;;;;;;;26.80;16.40;;;11.50;64.20;;;;;;5051009;28;20435;-55
2022/03/11 11:12:39;;;;;;;24.52;15.60;;;11.40;62.60;;;;;;5057165;28;20037;-55
2022/03/11 11:15:07;;;;;;;23.85;16.92;;;11.40;63.80;;;;;;5052600;28;20040;-61
2022/03/11 11:17:38;;;;;;;22.73;15.80;;;11.60;63.60;;;;;;5044285;28;20036;-55
2022/03/11 11:20:06;;;;;;;25.52;16.52;;;11.80;63.90;;;;;;5051067;28;20396;-53
2022/03/11 11:22:34;;;;;;;25.35;18.05;;;11.90;64.00;;;;;;5064967;28;20423;-54
2022/03/11 11:25:02;;;;;;;23.30;17.15;;;12.00;63.40;;;;;;5056251;28;20044;-53
2022/03/11 11:27:33;;;;;;;23.73;17.02;;;11.90;62.20;;;;;;5057544;28;20384;-62
2022/03/11 11:30:00;;;;;;;23.80;17.13;;;12.00;63.50;;;;;;5065710;28;20079;-52
2022/03/11 11:32:26;;;;;;;26.55;17.45;;;12.00;61.80;;;;;;5059836;28;20452;-55
2022/03/11 11:34:52;;;;;;;24.55;16.50;;;12.10;62.70;;;;;;5047138;28;20094;-56
2022/03/11 11:37:38;;;;;;;24.45;16.52;;;12.20;62.30;;;;;;5054535;28;20053;-56
2022/03/11 11:40:25;;;;;;;23.17;16.80;;;12.30;61.50;;;;;;5036785;28;20037;-58
2022/03/11 11:43:14;;;;;;;23.73;17.63;;;12.40;62.80;;;;;;5060603;28;20040;-56
2022/03/11 11:45:42;;;;;;;25.15;16.52;;;12.40;61.60;;;;;;5048866;28;20479;-56
2022/03/11 11:48:45;;;;;;;29.13;17.48;;;12.40;62.00;;;;;;5065368;28;20119;-57
2022/03/11 11:51:18;;;;;;;29.27;17.30;;;12.50;61.20;;;;;;5037879;28;20065;-60
2022/03/11 11:53:53;;;;;;;22.98;17.02;;;12.50;60.70;;;;;;5055325;28;20059;-56
2022/03/11 11:56:34;;;;;;;24.90;16.65;;;12.60;59.70;;;;;;5046968;28;20063;-58
2022/03/11 11:59:07;;;;;;;23.52;16.85;;;12.50;59.80;;;;;;5046734;28;20148;-61
2022/03/11 12:01:43;;;;;;;19.42;16.15;;;12.70;62.00;;;;;;5062593;28;20043;-56
2022/03/11 12:04:31;;;;;;;24.10;16.30;;;12.80;60.70;;;;;;5060176;28;20439;-57
2022/03/11 12:07:13;;;;;;;22.75;16.75;;;12.80;58.10;;;;;;5059200;28;20043;-58
2022/03/11 12:09:39;;;;;;;27.70;17.23;;;12.90;59.00;;;;;;5052614;28;20051;-55
2022/03/11 12:12:33;;;;;;;23.50;16.92;;;12.90;59.50;;;;;;5057823;28;20044;-55
2022/03/11 12:15:00;;;;;;;29.13;17.02;;;12.90;58.40;;;;;;5039458;28;20488;-56
2022/03/11 12:17:45;;;;;;;24.40;17.25;;;13.00;59.40;;;;;;5058871;28;20052;-57
2022/03/11 12:20:35;;;;;;;25.15;17.52;;;13.20;59.50;;;;;;5047689;28;20040;-58
2022/03/11 12:23:09;;;;;;;22.05;16.55;;;13.00;58.70;;;;;;5054183;28;20470;-55
2022/03/11 12:25:57;;;;;;;23.98;17.17;;;13.10;59.90;;;;;;5040669;28;20051;-56
2022/03/11 12:28:35;;;;;;;22.77;17.05;;;13.00;60.20;;;;;;5063486;28;20612;-59
2022/03/11 12:31:02;;;;;;;23.20;17.13;;;13.20;59.10;;;;;;5042816;28;20097;-55
2022/03/11 12:33:38;;;;;;;23.67;17.45;;;13.30;58.00;;;;;;5054145;28;20045;-56
2022/03/11 12:36:14;;;;;;;23.48;17.05;;;13.10;56.30;;;;;;5059052;28;20036;-53
2022/03/11 12:38:41;;;;;;;26.02;17.42;;;13.10;58.00;;;;;;5060964;28;20044;-52
2022/03/11 12:41:10;;;;;;;22.67;16.05;;;13.30;58.30;;;;;;5058962;28;20048;-56